createdAt,value
2023-04-12T00:01:50.108Z,6.10
2023-04-12T00:04:23.657Z,6.17
2023-04-12T00:06:54.664Z,5.50
2023-04-12T00:09:23.795Z,5.33
2023-04-12T00:11:53.387Z,6.30
2023-04-12T00:14:23.897Z,5.90
2023-04-12T00:16:53.917Z,5.50
2023-04-12T00:19:26.594Z,5.13
2023-04-12T00:21:56.696Z,6.90
2023-04-12T00:24:26.248Z,5.17
2023-04-12T00:26:57.206Z,5.50
2023-04-12T00:29:27.921Z,6.00
2023-04-12T00:31:57.082Z,5.77
2023-04-12T00:34:27.198Z,5.70
2023-04-12T00:36:57.638Z,5.07
2023-04-12T00:39:28.545Z,4.53
2023-04-12T00:41:59.662Z,4.57
2023-04-12T00:44:31.638Z,4.30
2023-04-12T00:47:02.380Z,4.53
2023-04-12T00:49:34.579Z,4.20
2023-04-12T00:52:06.761Z,3.60
2023-04-12T00:54:36.649Z,4.57
2023-04-12T00:57:06.111Z,4.13
2023-04-12T00:59:36.825Z,4.20
2023-04-12T01:02:07.644Z,3.90
2023-04-12T01:04:38.132Z,4.00
2023-04-12T01:07:16.295Z,3.63
2023-04-12T01:09:52.544Z,3.57
2023-04-12T01:12:27.973Z,3.33
2023-04-12T01:15:02.482Z,3.30
2023-04-12T01:17:38.809Z,3.57
2023-04-12T01:20:13.820Z,3.00
2023-04-12T01:22:57.581Z,3.07
2023-04-12T01:25:34.710Z,3.20
2023-04-12T01:28:06.805Z,2.80
2023-04-12T01:30:36.915Z,2.87
2023-04-12T01:33:07.710Z,2.73
2023-04-12T01:35:39.974Z,2.87
2023-04-12T01:38:12.257Z,3.30
2023-04-12T01:40:42.797Z,3.00
2023-04-12T01:43:14.433Z,2.70
2023-04-12T01:45:44.469Z,3.67
2023-04-12T01:48:14.252Z,3.20
2023-04-12T01:50:52.189Z,2.80
2023-04-12T01:53:24.742Z,3.10
2023-04-12T01:55:57.468Z,3.70
2023-04-12T01:58:28.670Z,3.00
2023-04-12T02:00:59.747Z,2.90
2023-04-12T02:03:31.685Z,2.83
2023-04-12T02:06:01.489Z,3.07
2023-04-12T02:08:32.045Z,2.77
2023-04-12T02:11:02.233Z,2.80
2023-04-12T02:13:33.383Z,3.03
2023-04-12T02:16:03.559Z,3.30
2023-04-12T02:18:37.214Z,3.87
2023-04-12T02:21:08.448Z,3.07
2023-04-12T02:23:39.099Z,3.40
2023-04-12T02:26:08.745Z,3.33
2023-04-12T02:28:41.669Z,3.53
2023-04-12T02:31:15.693Z,3.30
2023-04-12T02:33:48.144Z,3.40
2023-04-12T02:36:18.587Z,3.10
2023-04-12T02:38:51.814Z,3.47
2023-04-12T02:41:22.713Z,2.77
2023-04-12T02:43:55.140Z,2.53
2023-04-12T02:46:27.397Z,2.60
2023-04-12T02:49:01.006Z,2.97
2023-04-12T02:51:41.838Z,2.43
2023-04-12T02:54:12.615Z,3.20
2023-04-12T02:56:52.544Z,3.10
2023-04-12T02:59:44.458Z,3.10
2023-04-12T03:02:22.396Z,3.00
2023-04-12T03:04:53.525Z,3.63
2023-04-12T03:07:31.272Z,3.80
2023-04-12T03:10:01.513Z,3.97
2023-04-12T03:12:31.462Z,4.00
2023-04-12T03:15:15.581Z,4.83
2023-04-12T03:17:49.428Z,4.67
2023-04-12T03:20:25.564Z,4.60
2023-04-12T03:23:02.488Z,5.17
2023-04-12T03:25:34.368Z,5.37
2023-04-12T03:28:21.798Z,5.83
2023-04-12T03:30:55.012Z,5.70
2023-04-12T03:33:27.752Z,7.00
2023-04-12T03:36:04.735Z,6.13
2023-04-12T03:38:34.340Z,6.70
2023-04-12T03:41:04.992Z,5.80
2023-04-12T03:43:40.215Z,6.37
2023-04-12T03:46:19.773Z,5.93
2023-04-12T03:48:57.883Z,5.77
2023-04-12T03:51:30.835Z,6.40
2023-04-12T03:54:06.895Z,6.10
2023-04-12T03:56:46.485Z,6.57
2023-04-12T03:59:25.935Z,6.37
2023-04-12T04:01:58.249Z,5.33
2023-04-12T04:04:29.923Z,5.90
2023-04-12T04:07:04.938Z,6.50
2023-04-12T04:09:42.145Z,6.50
2023-04-12T04:12:13.468Z,6.27
2023-04-12T04:14:47.334Z,7.27
2023-04-12T04:17:28.331Z,7.33
2023-04-12T04:19:57.972Z,7.50
2023-04-12T04:22:29.758Z,7.47
2023-04-12T04:25:01.306Z,7.20
2023-04-12T04:27:34.662Z,7.23
2023-04-12T04:30:06.535Z,7.87
2023-04-12T04:32:39.589Z,7.70
2023-04-12T04:35:10.087Z,7.10
2023-04-12T04:37:53.038Z,6.83
2023-04-12T04:40:23.344Z,7.20
2023-04-12T04:42:55.918Z,8.60
2023-04-12T04:45:28.336Z,7.63
2023-04-12T04:48:00.105Z,8.20
2023-04-12T04:50:29.967Z,8.30
2023-04-12T04:52:59.089Z,7.23
2023-04-12T04:55:30.903Z,7.23
2023-04-12T04:58:00.231Z,6.63
2023-04-12T05:00:29.533Z,7.73
2023-04-12T05:03:04.081Z,7.67
2023-04-12T05:05:33.446Z,8.53
2023-04-12T05:08:13.424Z,8.80
2023-04-12T05:10:45.387Z,10.77
2023-04-12T05:13:15.728Z,10.53
2023-04-12T05:15:45.466Z,11.40
2023-04-12T05:18:18.716Z,12.17
2023-04-12T05:20:48.959Z,12.40
2023-04-12T05:23:18.506Z,11.07
2023-04-12T05:25:50.754Z,11.40
2023-04-12T05:28:24.231Z,12.30
2023-04-12T05:30:54.828Z,12.63
2023-04-12T05:33:30.632Z,12.97
2023-04-12T05:36:02.557Z,15.00
2023-04-12T05:38:33.301Z,13.67
2023-04-12T05:41:08.227Z,14.00
2023-04-12T05:43:39.772Z,14.70
2023-04-12T05:46:12.324Z,15.70
2023-04-12T05:48:43.094Z,16.60
2023-04-12T05:51:13.500Z,14.63
2023-04-12T05:53:42.766Z,17.67
2023-04-12T05:56:14.169Z,17.27
2023-04-12T05:58:46.029Z,16.93
2023-04-12T06:01:16.860Z,16.57
2023-04-12T06:03:47.646Z,15.53
2023-04-12T06:06:18.529Z,17.60
2023-04-12T06:08:48.855Z,16.63
2023-04-12T06:11:18.985Z,14.87
2023-04-12T06:13:48.873Z,14.97
2023-04-12T06:16:18.313Z,16.20
2023-04-12T06:18:50.051Z,16.80
2023-04-12T06:21:20.474Z,18.07
2023-04-12T06:23:49.808Z,16.17
2023-04-12T06:26:21.220Z,14.93
2023-04-12T06:28:50.764Z,14.90
2023-04-12T06:31:19.937Z,15.37
2023-04-12T06:33:51.772Z,14.43
2023-04-12T06:36:21.383Z,15.87
2023-04-12T06:38:51.525Z,13.73
2023-04-12T06:41:23.078Z,14.80
2023-04-12T06:44:02.138Z,15.60
2023-04-12T06:46:32.945Z,14.93
2023-04-12T06:49:03.655Z,14.30
2023-04-12T06:51:34.830Z,14.20
2023-04-12T06:54:03.875Z,14.03
2023-04-12T06:56:33.404Z,13.37
2023-04-12T06:59:03.107Z,10.83
2023-04-12T07:01:33.194Z,16.20
2023-04-12T07:04:03.769Z,22.73
2023-04-12T07:06:34.591Z,10.20
2023-04-12T07:09:03.837Z,7.50
2023-04-12T07:11:33.899Z,7.40
2023-04-12T07:14:03.094Z,8.17
2023-04-12T07:16:33.085Z,6.30
2023-04-12T07:19:03.841Z,7.50
2023-04-12T07:21:33.285Z,8.20
2023-04-12T07:28:02.081Z,17.50
2023-04-12T07:30:31.792Z,6.70
2023-04-12T07:33:18.533Z,6.77
2023-04-12T07:35:51.369Z,5.93
2023-04-12T07:38:21.713Z,5.50
2023-04-12T07:40:51.226Z,6.80
2023-04-12T07:43:21.318Z,7.20
2023-04-12T07:45:52.091Z,8.60
2023-04-12T07:48:21.512Z,9.30
2023-04-12T07:50:52.177Z,7.40
2023-04-12T07:53:22.882Z,7.20
2023-04-12T07:55:52.758Z,7.97
2023-04-12T07:58:22.140Z,8.80
2023-04-12T08:00:52.051Z,10.63
2023-04-12T08:03:21.536Z,10.17
2023-04-12T08:05:54.431Z,9.60
2023-04-12T08:08:24.569Z,9.77
2023-04-12T08:10:54.555Z,9.43
2023-04-12T08:13:23.969Z,9.57
2023-04-12T08:15:53.354Z,10.03
2023-04-12T08:18:22.772Z,10.30
2023-04-12T08:20:53.561Z,10.23
2023-04-12T08:23:24.684Z,10.83
2023-04-12T08:25:59.602Z,10.20
2023-04-12T08:28:29.241Z,8.93
2023-04-12T08:30:59.676Z,8.40
2023-04-12T08:33:29.724Z,9.70
2023-04-12T08:36:00.318Z,9.93
2023-04-12T08:38:44.114Z,9.13
2023-04-12T08:41:15.496Z,8.93
2023-04-12T08:43:47.499Z,8.07
2023-04-12T08:46:18.006Z,8.20
2023-04-12T08:48:48.242Z,8.03
2023-04-12T08:51:19.899Z,8.70
2023-04-12T08:53:49.792Z,8.97
2023-04-12T08:56:19.137Z,6.90
2023-04-12T08:58:50.167Z,8.50
2023-04-12T09:01:20.454Z,7.63
2023-04-12T09:03:49.735Z,7.20
2023-04-12T09:06:21.569Z,6.50
2023-04-12T09:08:54.671Z,7.93
2023-04-12T09:11:26.224Z,9.70
2023-04-12T09:13:56.950Z,7.23
2023-04-12T09:16:41.451Z,7.07
2023-04-12T09:19:11.291Z,8.70
2023-04-12T09:21:53.753Z,7.03
2023-04-12T09:24:24.404Z,6.40
2023-04-12T09:27:04.071Z,6.60
2023-04-12T09:29:34.278Z,9.93
2023-04-12T09:32:04.892Z,6.83
2023-04-12T09:34:35.358Z,6.43
2023-04-12T09:37:15.409Z,6.90
2023-04-12T09:39:45.988Z,7.80
2023-04-12T09:42:32.372Z,7.40
2023-04-12T09:45:04.413Z,6.17
2023-04-12T09:47:42.261Z,6.27
2023-04-12T09:50:21.575Z,11.97
2023-04-12T09:52:54.838Z,7.07
2023-04-12T09:55:25.592Z,6.87
2023-04-12T09:57:56.427Z,7.43
2023-04-12T10:00:27.877Z,7.10
2023-04-12T10:02:58.189Z,7.73
2023-04-12T10:05:28.480Z,6.97
2023-04-12T10:08:02.459Z,7.43
2023-04-12T10:10:33.773Z,7.03
2023-04-12T10:13:03.941Z,5.90
2023-04-12T10:15:34.820Z,6.50
2023-04-12T10:18:09.377Z,5.80
2023-04-12T10:20:42.269Z,6.83
2023-04-12T10:23:18.601Z,7.27
2023-04-12T10:25:52.496Z,8.97
2023-04-12T10:28:23.203Z,7.47
2023-04-12T10:30:54.990Z,7.00
2023-04-12T10:33:27.906Z,7.00
2023-04-12T10:36:00.025Z,6.20
2023-04-12T10:38:37.530Z,5.60
2023-04-12T10:41:11.157Z,10.67
2023-04-12T10:43:42.219Z,6.83
2023-04-12T10:46:27.175Z,8.10
2023-04-12T10:48:57.616Z,6.80
2023-04-12T10:51:29.143Z,6.47
2023-04-12T10:54:21.336Z,8.50
2023-04-12T10:56:52.606Z,6.90
2023-04-12T10:59:49.673Z,9.33
2023-04-12T11:02:20.056Z,9.73
2023-04-12T11:05:08.998Z,7.03
2023-04-12T11:08:03.967Z,6.30
2023-04-12T11:10:48.479Z,8.40
2023-04-12T11:13:26.681Z,9.47
2023-04-12T11:15:57.871Z,6.83
2023-04-12T11:18:27.904Z,6.40
2023-04-12T11:20:59.020Z,6.13
2023-04-12T11:23:29.109Z,6.83
2023-04-12T11:25:58.503Z,7.00
2023-04-12T11:28:33.162Z,6.43
2023-04-12T11:31:05.573Z,6.13
2023-04-12T11:33:39.095Z,7.00
2023-04-12T11:36:09.584Z,6.87
2023-04-12T11:38:38.853Z,5.70
2023-04-12T11:41:10.590Z,5.90
2023-04-12T11:43:41.531Z,8.50
2023-04-12T11:46:11.625Z,6.80
2023-04-12T11:48:40.953Z,6.70
2023-04-12T11:51:22.062Z,8.40
2023-04-12T11:53:54.742Z,7.40
2023-04-12T11:56:25.878Z,7.90
2023-04-12T11:58:56.587Z,7.20
2023-04-12T12:01:28.280Z,7.13
2023-04-12T12:03:58.155Z,7.90
2023-04-12T12:06:29.564Z,7.80
2023-04-12T12:09:00.337Z,7.60
2023-04-12T12:11:29.642Z,6.90
2023-04-12T12:14:02.620Z,7.67
2023-04-12T12:16:32.442Z,7.27
2023-04-12T12:19:05.860Z,7.33
2023-04-12T12:21:35.285Z,6.43
2023-04-12T12:24:04.579Z,6.17
2023-04-12T12:26:35.610Z,5.90
2023-04-12T12:29:09.300Z,6.93
2023-04-12T12:34:09.233Z,5.77
2023-04-12T12:36:39.289Z,5.80
2023-04-12T12:39:11.164Z,5.00
2023-04-12T12:41:41.367Z,5.77
2023-04-12T12:44:14.033Z,4.70
2023-04-12T12:46:55.153Z,4.37
2023-04-12T12:49:26.084Z,4.70
2023-04-12T12:51:55.752Z,4.93
2023-04-12T12:57:02.388Z,3.70
2023-04-12T12:59:32.906Z,4.07
2023-04-12T13:02:02.619Z,4.07
2023-04-12T13:04:32.781Z,3.97
2023-04-12T13:07:02.499Z,4.47
2023-04-12T13:09:34.100Z,4.73
2023-04-12T13:12:04.409Z,3.83
2023-04-12T13:14:35.743Z,2.03
2023-04-12T13:17:05.857Z,1.80
2023-04-12T13:19:35.110Z,2.30
2023-04-12T13:22:07.201Z,1.93
2023-04-12T13:24:37.312Z,2.27
2023-04-12T13:27:06.591Z,2.30
2023-04-12T13:29:38.942Z,2.27
2023-04-12T13:32:08.526Z,2.23
2023-04-12T13:34:38.354Z,1.60
2023-04-12T13:37:09.037Z,2.07
2023-04-12T13:39:40.238Z,1.63
2023-04-12T13:42:10.462Z,1.60
2023-04-12T13:44:41.421Z,2.27
2023-04-12T13:47:11.689Z,2.90
2023-04-12T13:49:40.925Z,1.70
2023-04-12T13:52:11.508Z,2.27
2023-04-12T13:54:41.721Z,1.90
2023-04-12T13:57:11.329Z,2.10
2023-04-12T13:59:44.876Z,2.00
2023-04-12T14:02:14.877Z,1.90
2023-04-12T14:04:52.972Z,1.63
2023-04-12T14:07:25.112Z,1.80
2023-04-12T14:09:55.902Z,1.67
2023-04-12T14:12:25.052Z,1.80
2023-04-12T14:14:56.155Z,1.67
2023-04-12T14:17:25.678Z,1.43
2023-04-12T14:19:54.840Z,2.13
2023-04-12T14:22:24.389Z,1.93
2023-04-12T14:24:53.540Z,1.60
2023-04-12T14:27:23.867Z,1.90
2023-04-12T14:29:53.779Z,1.67
2023-04-12T14:32:24.606Z,1.70
2023-04-12T14:34:54.039Z,1.50
2023-04-12T14:37:24.651Z,1.80
2023-04-12T14:39:55.716Z,1.87
2023-04-12T14:42:26.083Z,1.90
2023-04-12T14:44:55.310Z,1.77
2023-04-12T14:47:26.281Z,1.70
2023-04-12T14:49:56.114Z,1.03
2023-04-12T14:52:26.338Z,1.50
2023-04-12T14:54:57.163Z,1.30
2023-04-12T14:57:26.379Z,1.50
2023-04-12T14:59:56.855Z,1.63
2023-04-12T15:02:28.219Z,1.20
2023-04-12T15:04:57.885Z,1.03
2023-04-12T15:07:27.466Z,1.80
2023-04-12T15:09:58.890Z,1.57
2023-04-12T15:12:28.793Z,1.37
2023-04-12T15:14:57.949Z,1.90
2023-04-12T15:17:31.362Z,1.33
2023-04-12T15:20:08.566Z,1.30
2023-04-12T15:22:38.416Z,2.43
2023-04-12T15:25:08.310Z,1.47
2023-04-12T15:27:38.327Z,1.73
2023-04-12T15:30:11.223Z,1.20
2023-04-12T15:32:42.767Z,1.50
2023-04-12T15:37:45.463Z,1.30
2023-04-12T15:40:15.848Z,1.77
2023-04-12T15:42:45.598Z,1.93
2023-04-12T15:45:14.887Z,1.90
2023-04-12T15:47:48.064Z,2.03
2023-04-12T15:50:17.982Z,1.60
2023-04-12T15:52:48.680Z,2.60
2023-04-12T15:55:20.456Z,1.47
2023-04-12T15:57:50.055Z,1.57
2023-04-12T16:00:26.401Z,1.40
2023-04-12T16:02:57.684Z,1.40
2023-04-12T16:05:28.134Z,1.60
2023-04-12T16:07:58.098Z,2.30
2023-04-12T16:10:29.065Z,2.23
2023-04-12T16:12:59.039Z,2.00
2023-04-12T16:15:28.106Z,1.83
2023-04-12T16:18:00.254Z,4.90
2023-04-12T16:20:30.595Z,4.70
2023-04-12T16:23:00.476Z,3.47
2023-04-12T16:25:30.092Z,4.47
2023-04-12T16:28:03.052Z,4.60
2023-04-12T16:30:32.933Z,4.97
2023-04-12T16:33:04.461Z,4.47
2023-04-12T16:35:34.543Z,4.20
2023-04-12T16:38:05.507Z,5.00
2023-04-12T16:40:34.983Z,4.50
2023-04-12T16:43:04.066Z,4.77
2023-04-12T16:45:33.834Z,5.00
2023-04-12T16:48:04.450Z,4.50
2023-04-12T16:50:34.951Z,4.20
2023-04-12T16:53:05.465Z,6.00
2023-04-12T16:55:35.717Z,3.60
2023-04-12T16:58:04.921Z,4.70
2023-04-12T17:00:54.498Z,4.33
2023-04-12T17:03:25.921Z,4.40
2023-04-12T17:05:55.058Z,4.60
2023-04-12T17:08:25.368Z,4.30
2023-04-12T17:10:54.583Z,4.40
2023-04-12T17:13:24.043Z,4.60
2023-04-12T17:15:53.798Z,4.80
2023-04-12T17:18:23.455Z,4.60
2023-04-12T17:20:54.453Z,3.80
2023-04-12T17:23:24.429Z,3.50
2023-04-12T17:25:53.734Z,4.87
2023-04-12T17:28:24.072Z,4.47
2023-04-12T17:30:53.985Z,4.07
2023-04-12T17:33:23.656Z,5.80
2023-04-12T17:35:54.900Z,4.03
2023-04-12T17:38:24.914Z,4.40
2023-04-12T17:40:54.222Z,6.50
2023-04-12T17:43:23.949Z,4.03
2023-04-12T17:45:53.152Z,3.70
2023-04-12T17:48:22.966Z,3.93
2023-04-12T17:50:52.828Z,3.90
2023-04-12T17:53:24.617Z,4.20
2023-04-12T17:55:54.242Z,4.30
2023-04-12T17:58:23.980Z,5.50
2023-04-12T18:00:53.529Z,5.27
2023-04-12T18:03:23.323Z,6.90
2023-04-12T18:05:54.062Z,4.60
2023-04-12T18:08:26.434Z,4.80
2023-04-12T18:10:56.120Z,4.13
2023-04-12T18:13:25.245Z,4.60
2023-04-12T18:15:56.215Z,4.50
2023-04-12T18:18:25.933Z,3.97
2023-04-12T18:20:55.497Z,4.50
2023-04-12T18:23:26.424Z,4.30
2023-04-12T18:25:55.930Z,4.10
2023-04-12T18:28:25.137Z,4.40
2023-04-12T18:30:57.226Z,4.80
2023-04-12T18:33:27.838Z,5.80
2023-04-12T18:35:57.757Z,5.13
2023-04-12T18:38:32.586Z,4.30
2023-04-12T18:41:02.889Z,5.50
2023-04-12T18:43:32.722Z,4.50
2023-04-12T18:46:03.295Z,3.80
2023-04-12T18:48:33.222Z,4.33
2023-04-12T18:51:02.925Z,3.97
2023-04-12T18:53:35.035Z,4.00
2023-04-12T18:56:09.476Z,3.80
2023-04-12T18:58:54.137Z,6.67
2023-04-12T19:01:24.887Z,5.90
2023-04-12T19:03:55.199Z,4.10
2023-04-12T19:06:24.736Z,4.67
2023-04-12T19:08:55.809Z,4.50
2023-04-12T19:11:27.194Z,3.80
2023-04-12T19:13:58.145Z,7.60
2023-04-12T19:16:29.045Z,4.10
2023-04-12T19:19:01.104Z,5.93
2023-04-12T19:21:34.702Z,5.03
2023-04-12T19:24:10.203Z,5.77
2023-04-12T19:26:46.979Z,4.73
2023-04-12T19:29:20.578Z,4.37
2023-04-12T19:31:52.432Z,4.83
2023-04-12T19:34:24.345Z,4.57
2023-04-12T19:36:58.340Z,5.30
2023-04-12T19:39:30.566Z,5.17
2023-04-12T19:42:02.226Z,4.80
2023-04-12T19:44:33.825Z,5.77
2023-04-12T19:47:04.603Z,4.83
2023-04-12T19:49:36.512Z,5.10
2023-04-12T19:52:06.703Z,4.80
2023-04-12T19:54:39.111Z,5.77
2023-04-12T19:57:10.545Z,5.60
2023-04-12T19:59:41.409Z,5.83
2023-04-12T20:02:13.005Z,6.10
2023-04-12T20:04:42.552Z,5.53
2023-04-12T20:07:13.490Z,4.67
2023-04-12T20:09:44.963Z,4.67
2023-04-12T20:12:17.324Z,4.17
2023-04-12T20:14:47.092Z,3.40
2023-04-12T20:17:16.354Z,2.80
2023-04-12T20:19:48.242Z,2.77
2023-04-12T20:22:21.339Z,4.30
2023-04-12T20:24:56.039Z,3.50
2023-04-12T20:27:28.830Z,4.13
2023-04-12T20:30:01.639Z,3.80
2023-04-12T20:32:32.034Z,3.70
2023-04-12T20:35:03.133Z,5.27
2023-04-12T20:37:33.832Z,4.37
2023-04-12T20:40:09.858Z,4.23
2023-04-12T20:42:43.791Z,4.80
2023-04-12T20:45:18.321Z,7.00
2023-04-12T20:47:49.470Z,5.70
2023-04-12T20:50:23.439Z,5.27
2023-04-12T20:52:54.945Z,4.60
2023-04-12T20:55:34.190Z,3.87
2023-04-12T20:58:06.385Z,4.53
2023-04-12T21:00:37.544Z,4.13
2023-04-12T21:03:07.229Z,4.37
2023-04-12T21:05:37.217Z,3.67
2023-04-12T21:08:07.816Z,3.50
2023-04-12T21:10:39.112Z,3.10
2023-04-12T21:13:09.387Z,4.57
2023-04-12T21:15:38.739Z,5.90
2023-04-12T21:18:08.556Z,4.13
2023-04-12T21:20:38.648Z,6.03
2023-04-12T21:23:08.309Z,4.07
2023-04-12T21:25:39.597Z,4.10
2023-04-12T21:28:09.538Z,3.83
2023-04-12T21:30:38.814Z,3.83
2023-04-12T21:33:09.375Z,3.23
2023-04-12T21:35:38.540Z,3.83
2023-04-12T21:38:08.464Z,2.73
2023-04-12T21:40:40.034Z,3.80
2023-04-12T21:43:09.728Z,3.20
2023-04-12T21:45:38.918Z,3.57
2023-04-12T21:48:09.596Z,3.57
2023-04-12T21:50:38.905Z,2.47
2023-04-12T21:53:09.746Z,3.20
2023-04-12T21:55:41.288Z,4.27
2023-04-12T21:58:11.052Z,3.60
2023-04-12T22:00:42.416Z,3.20
2023-04-12T22:03:12.332Z,3.40
2023-04-12T22:05:42.126Z,3.47
2023-04-12T22:08:12.930Z,4.20
2023-04-12T22:10:43.489Z,3.60
2023-04-12T22:13:13.633Z,4.57
2023-04-12T22:15:42.827Z,4.80
2023-04-12T22:18:13.222Z,3.50
2023-04-12T22:20:42.986Z,4.03
2023-04-12T22:23:13.811Z,3.63
2023-04-12T22:25:44.406Z,3.40
2023-04-12T22:28:17.201Z,3.23
2023-04-12T22:30:48.782Z,3.77
2023-04-12T22:33:17.742Z,2.93
2023-04-12T22:35:49.843Z,3.77
2023-04-12T22:38:19.927Z,3.63
2023-04-12T22:40:52.000Z,3.40
2023-04-12T22:43:22.510Z,3.50
2023-04-12T22:45:54.275Z,3.50
2023-04-12T22:55:03.285Z,3.00
2023-04-12T22:57:35.182Z,3.53
2023-04-12T23:00:07.193Z,2.53
2023-04-12T23:02:37.777Z,3.20
2023-04-12T23:05:07.599Z,4.00
2023-04-12T23:07:37.836Z,2.80
2023-04-12T23:10:07.975Z,2.80
2023-04-12T23:12:39.492Z,3.70
2023-04-12T23:15:09.519Z,3.20
2023-04-12T23:17:39.139Z,3.10
2023-04-12T23:20:13.593Z,3.40
2023-04-12T23:22:57.985Z,3.90
2023-04-12T23:25:39.734Z,4.17
2023-04-12T23:28:13.285Z,3.47
2023-04-12T23:30:48.421Z,2.97
2023-04-12T23:33:20.683Z,3.43
2023-04-12T23:35:53.296Z,3.10
2023-04-12T23:38:27.265Z,3.13
2023-04-12T23:40:58.072Z,2.90
2023-04-12T23:43:29.372Z,2.73
2023-04-12T23:45:59.523Z,3.07
2023-04-12T23:48:28.503Z,3.13
2023-04-12T23:50:58.496Z,3.20
2023-04-12T23:53:28.392Z,3.30
2023-04-12T23:55:58.618Z,3.23
2023-04-12T23:58:29.137Z,3.13
